Time;durP1;ratioP1;P1;durP2;ratioP2;P2;SDS_P1;SDS_P2;PMS_P1;PMS_P2;Temp;Humidity;BMP_temperature;BMP_pressure;BME280_temperature;BME280_humidity;BME280_pressure;Samples;Min_cycle;Max_cycle;Signal;HPM_P1;HPM_P2
2023/10/04 05:38:08;;;;;;;;;;;;;;;18.61;57.15;97942.34;4226364;27;10385;-63
2023/10/04 05:40:16;;;;;;;;;;;;;;;18.87;56.54;97944.84;4225651;28;5673;-63
2023/10/04 05:42:20;;;;;;;;;;;;;;;19.05;56.01;97935.22;4227272;28;5467;-63
2023/10/04 05:44:23;;;;;;;;;;;;;;;19.16;55.72;97935.34;4230691;28;7819;-63
2023/10/04 05:46:26;;;;;;;;;;;;;;;19.28;55.31;97934.63;4231806;28;5804;-63
2023/10/04 05:48:29;;;;;;;;;;;;;;;19.37;55.25;97938.66;4231862;28;5810;-63
2023/10/04 05:50:33;;;;;;;;;;;;;;;19.43;54.59;97938.56;4231461;28;5662;-63
2023/10/04 05:52:36;;;;;;;;;;;;;;;19.48;54.63;97943.28;4229108;28;6358;-63
2023/10/04 05:54:40;;;;;;;;;;;;;;;19.48;54.40;97936.06;4231538;28;5701;-64
2023/10/04 05:56:43;;;;;;;;;;;;;;;19.49;54.32;97936.88;4230818;28;5756;-63
2023/10/04 05:58:47;;;;;;;;;;;;;;;19.51;54.30;97940.16;4230548;28;5684;-63
2023/10/04 06:00:52;;;;;;;;;;;;;;;19.54;54.18;97941.56;4229990;28;5669;-64
2023/10/04 06:02:58;;;;;;;;;;;;;;;19.59;53.72;97939.06;4224328;28;6383;-64
2023/10/04 06:05:02;;;;;;;;;;;;;;;19.63;53.69;97948.31;4231321;28;5680;-64
2023/10/04 06:07:07;;;;;;;;;;;;;;;19.58;53.59;97946.28;4222581;28;5692;-65
2023/10/04 06:09:10;;;;;;;;;;;;;;;19.52;53.39;97946.34;4224233;28;5932;-64
2023/10/04 06:11:15;;;;;;;;;;;;;;;19.53;53.33;97943.44;4231289;28;5672;-64
2023/10/04 06:13:17;;;;;;;;;;;;;;;19.57;53.42;97951.88;4230229;28;5680;-64
2023/10/04 06:15:21;;;;;;;;;;;;;;;19.57;53.20;97949.19;4224594;28;5798;-64
2023/10/04 06:17:23;;;;;;;;;;;;;;;19.61;53.10;97948.53;4230577;28;5673;-64
2023/10/04 06:19:28;;;;;;;;;;;;;;;19.65;53.21;97944.38;4225625;28;5756;-64
2023/10/04 06:21:33;;;;;;;;;;;;;;;19.70;53.02;97957.09;4227315;28;5684;-64
2023/10/04 06:23:36;;;;;;;;;;;;;;;19.72;52.89;97947.81;4223424;28;5692;-64
2023/10/04 06:25:41;;;;;;;;;;;;;;;19.73;52.72;97948.63;4227817;28;5831;-64
2023/10/04 06:27:45;;;;;;;;;;;;;;;19.77;52.69;97950.63;4227482;28;5672;-64
2023/10/04 06:29:48;;;;;;;;;;;;;;;19.81;52.75;97945.63;4227133;28;5772;-64
2023/10/04 06:31:50;;;;;;;;;;;;;;;19.84;52.56;97950.56;4230491;28;5810;-64
2023/10/04 06:33:54;;;;;;;;;;;;;;;19.88;52.52;97953.59;4228886;28;5664;-64
2023/10/04 06:35:57;;;;;;;;;;;;;;;19.90;52.52;97946.16;4230164;28;6447;-64
2023/10/04 06:38:01;;;;;;;;;;;;;;;19.93;52.40;97954.59;4224491;28;5780;-64
2023/10/04 06:40:14;;;;;;;;;;;;;;;19.97;52.46;97954.94;4211557;28;5673;-64
2023/10/04 06:42:16;;;;;;;;;;;;;;;19.99;52.50;97947.50;4219417;28;5661;-64
2023/10/04 06:44:22;;;;;;;;;;;;;;;20.02;52.24;97947.03;4219424;28;5784;-64
2023/10/04 06:46:25;;;;;;;;;;;;;;;20.03;52.23;97946.00;4217703;28;5678;-64
2023/10/04 06:48:29;;;;;;;;;;;;;;;20.02;52.03;97941.66;4210992;28;5748;-64
2023/10/04 06:50:35;;;;;;;;;;;;;;;20.05;51.82;97938.56;4219426;28;5727;-64
2023/10/04 06:52:37;;;;;;;;;;;;;;;20.10;51.88;97953.97;4217720;28;5681;-64
2023/10/04 06:54:40;;;;;;;;;;;;;;;20.11;51.86;97960.97;4219189;28;5830;-64
2023/10/04 06:56:44;;;;;;;;;;;;;;;20.14;52.13;97950.59;4217141;28;5816;-65
2023/10/04 06:58:48;;;;;;;;;;;;;;;20.14;51.94;97955.97;4218484;28;5724;-64
2023/10/04 07:00:52;;;;;;;;;;;;;;;20.17;51.98;97960.09;4218832;28;6570;-65
2023/10/04 07:02:57;;;;;;;;;;;;;;;20.16;51.88;97963.78;4218970;28;5812;-64
2023/10/04 07:04:59;;;;;;;;;;;;;;;20.10;51.71;97970.06;4217709;28;5309;-67
2023/10/04 07:07:03;;;;;;;;;;;;;;;20.05;51.91;97960.03;4209065;28;7723;-65
2023/10/04 07:09:07;;;;;;;;;;;;;;;20.09;51.65;97955.03;4219188;28;5669;-64
2023/10/04 07:11:11;;;;;;;;;;;;;;;20.12;51.75;97959.94;4217494;28;5230;-69
2023/10/04 07:13:14;;;;;;;;;;;;;;;20.15;51.75;97949.53;4217201;28;5574;-68
2023/10/04 07:15:18;;;;;;;;;;;;;;;20.19;51.83;97956.13;4216766;28;7742;-63
2023/10/04 07:17:22;;;;;;;;;;;;;;;20.23;51.71;97953.78;4218546;28;5741;-62
2023/10/04 07:19:26;;;;;;;;;;;;;;;20.25;51.83;97957.88;4218824;28;5673;-62
2023/10/04 07:21:29;;;;;;;;;;;;;;;20.27;51.83;97954.97;4219063;28;6374;-63
2023/10/04 07:23:32;;;;;;;;;;;;;;;20.28;51.33;97952.09;4216005;28;5681;-62
2023/10/04 07:25:46;;;;;;;;;;;;;;;20.31;51.55;97956.19;4212822;28;5672;-63
2023/10/04 07:27:49;;;;;;;;;;;;;;;20.35;51.58;97947.44;4215926;28;5667;-64
2023/10/04 07:29:52;;;;;;;;;;;;;;;20.39;51.67;97953.19;4217930;28;5782;-64
2023/10/04 07:31:55;;;;;;;;;;;;;;;20.43;51.35;97958.94;4218738;28;5669;-64
2023/10/04 07:34:00;;;;;;;;;;;;;;;20.46;51.28;97961.16;4213686;28;5760;-64
2023/10/04 07:36:03;;;;;;;;;;;;;;;20.49;51.51;97963.38;4216957;28;5812;-64
2023/10/04 07:38:06;;;;;;;;;;;;;;;20.50;51.26;97962.34;4180402;28;5899;-63
2023/10/04 07:40:13;;;;;;;;;;;;;;;20.53;51.10;97959.22;4183900;28;5724;-64
2023/10/04 07:42:16;;;;;;;;;;;;;;;20.57;51.16;97960.38;4184276;28;5805;-64
2023/10/04 07:44:20;;;;;;;;;;;;;;;20.60;51.28;97965.28;4183529;28;5720;-64
2023/10/04 07:46:25;;;;;;;;;;;;;;;20.62;51.23;97963.22;4183697;28;5834;-63
2023/10/04 07:48:28;;;;;;;;;;;;;;;20.62;51.00;97971.28;4183762;28;5811;-64
2023/10/04 07:50:33;;;;;;;;;;;;;;;20.65;50.79;97960.06;4182673;28;5806;-64
2023/10/04 07:52:37;;;;;;;;;;;;;;;20.68;50.99;97958.78;4183524;28;5754;-64
2023/10/04 07:54:41;;;;;;;;;;;;;;;20.69;51.16;97969.31;4183827;28;5839;-64
2023/10/04 07:56:44;;;;;;;;;;;;;;;20.72;50.83;97958.09;4177522;28;5832;-64
2023/10/04 07:58:47;;;;;;;;;;;;;;;20.76;50.70;97958.47;4180906;28;6540;-64
2023/10/04 08:00:50;;;;;;;;;;;;;;;20.79;50.94;97963.38;4183716;28;5807;-63
2023/10/04 08:02:53;;;;;;;;;;;;;;;20.81;50.67;97959.41;4183446;28;5877;-63
2023/10/04 08:04:56;;;;;;;;;;;;;;;20.83;50.94;97953.78;4183268;28;5826;-63
2023/10/04 08:07:00;;;;;;;;;;;;;;;20.86;50.64;97951.50;4182770;28;5720;-64
2023/10/04 08:09:04;;;;;;;;;;;;;;;20.90;50.91;97943.78;4175308;28;5783;-64
2023/10/04 08:11:08;;;;;;;;;;;;;;;20.91;50.73;97943.53;4183500;28;6547;-64
2023/10/04 08:13:11;;;;;;;;;;;;;;;20.91;50.90;97951.59;4183019;28;5966;-65
2023/10/04 08:15:15;;;;;;;;;;;;;;;20.93;50.55;97948.69;4183425;28;5872;-65
2023/10/04 08:17:18;;;;;;;;;;;;;;;20.96;50.65;97955.47;4183416;28;5727;-64
2023/10/04 08:19:21;;;;;;;;;;;;;;;20.98;50.56;97961.44;4182998;28;5713;-64
2023/10/04 08:21:24;;;;;;;;;;;;;;;20.99;50.51;97947.75;4180822;28;5704;-64
2023/10/04 08:23:28;;;;;;;;;;;;;;;21.00;50.73;97943.22;4183282;28;5811;-64
2023/10/04 08:25:34;;;;;;;;;;;;;;;21.02;50.46;97941.91;4183387;28;5935;-65
2023/10/04 08:27:39;;;;;;;;;;;;;;;21.05;50.42;97946.81;4182640;28;5079;-65
2023/10/04 08:29:43;;;;;;;;;;;;;;;21.05;50.54;97941.44;4182476;28;5814;-64
2023/10/04 08:31:47;;;;;;;;;;;;;;;21.08;50.49;97940.19;4183167;28;5728;-65
2023/10/04 08:33:50;;;;;;;;;;;;;;;21.09;50.29;97936.44;4182916;28;5711;-64
2023/10/04 08:35:54;;;;;;;;;;;;;;;21.10;50.32;97932.69;4183141;28;5112;-62
2023/10/04 08:37:59;;;;;;;;;;;;;;;21.12;50.21;97934.09;4213640;28;5804;-66
2023/10/04 08:40:03;;;;;;;;;;;;;;;21.14;50.17;97939.25;4216347;28;5670;-64
2023/10/04 08:42:06;;;;;;;;;;;;;;;21.15;50.11;97936.31;4212664;28;5867;-64
2023/10/04 08:44:08;;;;;;;;;;;;;;;21.18;50.04;97945.81;4212517;28;5649;-64
2023/10/04 08:46:12;;;;;;;;;;;;;;;21.18;49.97;97938.56;4215888;28;5764;-64
2023/10/04 08:48:17;;;;;;;;;;;;;;;21.21;49.79;97935.41;4216199;28;5086;-64
2023/10/04 08:50:29;;;;;;;;;;;;;;;21.23;49.77;97941.34;4215154;28;5907;-64
2023/10/04 08:52:36;;;;;;;;;;;;;;;21.25;49.77;97930.38;4208521;28;5772;-64
2023/10/04 08:54:41;;;;;;;;;;;;;;;21.27;49.75;97933.66;4209691;28;5795;-64
2023/10/04 08:56:54;;;;;;;;;;;;;;;21.29;49.77;97936.94;4215598;28;6358;-64
2023/10/04 08:58:59;;;;;;;;;;;;;;;21.31;49.97;97939.41;4210066;28;5650;-65
2023/10/04 09:01:06;;;;;;;;;;;;;;;21.30;49.66;97943.97;4216284;28;5705;-64
2023/10/04 09:03:12;;;;;;;;;;;;;;;21.31;50.13;97940.22;4211908;28;5680;-64
2023/10/04 09:05:23;;;;;;;;;;;;;;;21.33;49.64;97938.13;4216448;28;5760;-64
2023/10/04 09:07:25;;;;;;;;;;;;;;;21.36;49.69;97940.34;4216353;28;5760;-64
2023/10/04 09:09:32;;;;;;;;;;;;;;;21.37;49.99;97941.97;4216700;28;5676;-64
2023/10/04 09:11:35;;;;;;;;;;;;;;;21.39;50.04;97941.72;4212586;28;5760;-65
2023/10/04 09:13:44;;;;;;;;;;;;;;;21.40;49.57;97938.81;4216286;28;5921;-66
2023/10/04 09:15:48;;;;;;;;;;;;;;;21.41;49.58;97939.66;4216564;28;5117;-65
2023/10/04 09:17:56;;;;;;;;;;;;;;;21.41;50.13;97937.78;4216095;28;5860;-65
2023/10/04 09:20:12;;;;;;;;;;;;;;;21.41;49.69;97929.72;4216242;28;5764;-65
2023/10/04 09:22:18;;;;;;;;;;;;;;;21.45;49.59;97930.03;4209757;28;5756;-65
2023/10/04 09:24:20;;;;;;;;;;;;;;;21.47;49.98;97923.38;4216382;28;5681;-65
2023/10/04 09:26:25;;;;;;;;;;;;;;;21.48;50.04;97919.63;4215961;28;5780;-64
2023/10/04 09:28:39;;;;;;;;;;;;;;;21.47;49.80;97917.16;4215843;28;5883;-64
2023/10/04 09:30:43;;;;;;;;;;;;;;;21.49;49.67;97918.56;4216063;28;6391;-64
2023/10/04 09:32:46;;;;;;;;;;;;;;;21.49;49.82;97915.06;4216153;28;5665;-64
2023/10/04 09:34:57;;;;;;;;;;;;;;;21.48;49.73;97911.56;4215934;28;5756;-64
2023/10/04 09:37:01;;;;;;;;;;;;;;;21.48;49.61;97910.75;4215503;28;5672;-64
2023/10/04 09:39:07;;;;;;;;;;;;;;;21.49;49.59;97910.50;4205980;28;5755;-64
2023/10/04 09:41:10;;;;;;;;;;;;;;;21.50;49.52;97914.81;4208721;28;5951;-64
2023/10/04 09:43:14;;;;;;;;;;;;;;;21.51;49.46;97927.22;4216737;28;6374;-64
2023/10/04 09:45:19;;;;;;;;;;;;;;;21.51;49.51;97932.59;4216916;28;5672;-64
2023/10/04 09:47:38;;;;;;;;;;;;;;;21.54;49.52;97927.81;4217219;28;5828;-64
2023/10/04 09:49:49;;;;;;;;;;;;;;;21.55;49.64;97932.16;4212581;28;5739;-64
2023/10/04 09:51:55;;;;;;;;;;;;;;;21.56;49.48;97926.53;4210232;28;5721;-64
2023/10/04 09:53:57;;;;;;;;;;;;;;;21.59;49.85;97927.91;4216303;28;5697;-64
2023/10/04 09:56:02;;;;;;;;;;;;;;;21.60;49.45;97926.88;4207428;28;5876;-63
2023/10/04 09:58:08;;;;;;;;;;;;;;;21.61;49.55;97928.50;4211739;28;5884;-62
2023/10/04 10:00:17;;;;;;;;;;;;;;;21.64;49.83;97936.13;4214216;28;5769;-63
2023/10/04 10:02:25;;;;;;;;;;;;;;;21.66;49.61;97934.81;4215301;28;5807;-63
2023/10/04 10:04:30;;;;;;;;;;;;;;;21.70;49.92;97938.66;4210351;28;5681;-63
2023/10/04 10:06:34;;;;;;;;;;;;;;;21.75;49.86;97935.28;4210332;28;5661;-63
2023/10/04 10:08:41;;;;;;;;;;;;;;;21.76;49.65;97928.84;4214059;28;5689;-64
2023/10/04 10:10:45;;;;;;;;;;;;;;;21.75;49.45;97925.34;4213744;28;5681;-64
2023/10/04 10:12:49;;;;;;;;;;;;;;;21.75;49.85;97925.34;4216894;28;5665;-64
2023/10/04 10:14:53;;;;;;;;;;;;;;;21.76;49.63;97910.00;4220104;28;5764;-64
2023/10/04 10:16:57;;;;;;;;;;;;;;;21.77;49.99;97917.03;4216540;28;5146;-64
2023/10/04 10:19:02;;;;;;;;;;;;;;;21.79;49.73;97917.59;4219866;28;5674;-64
2023/10/04 10:21:08;;;;;;;;;;;;;;;21.78;49.93;97913.28;4212091;28;5101;-64
2023/10/04 10:23:16;;;;;;;;;;;;;;;21.77;49.91;97915.16;4219618;28;5812;-63
2023/10/04 10:25:20;;;;;;;;;;;;;;;21.76;50.04;97910.00;4219879;28;5748;-65
2023/10/04 10:27:23;;;;;;;;;;;;;;;21.77;50.16;97906.25;4219676;28;5838;-64
2023/10/04 10:29:29;;;;;;;;;;;;;;;21.78;49.94;97913.28;4219377;28;5748;-64
2023/10/04 10:31:33;;;;;;;;;;;;;;;21.78;50.31;97908.72;4219894;28;5688;-65
2023/10/04 10:33:38;;;;;;;;;;;;;;;21.79;50.28;97906.84;4217103;28;5691;-66
2023/10/04 10:35:57;;;;;;;;;;;;;;;21.80;50.30;97905.78;4215562;28;5697;-65
2023/10/04 10:38:28;;;;;;;;;;;;;;;21.80;49.84;97895.00;4219259;28;5662;-65
2023/10/04 10:40:35;;;;;;;;;;;;;;;21.79;50.26;97893.38;4219468;28;5717;-65
2023/10/04 10:43:07;;;;;;;;;;;;;;;21.80;50.41;97895.00;4217702;28;5686;-64
2023/10/04 10:45:27;;;;;;;;;;;;;;;21.84;49.96;97888.09;4213139;28;5679;-64
2023/10/04 10:47:30;;;;;;;;;;;;;;;21.84;50.24;97892.66;4213234;28;5677;-65
2023/10/04 10:49:48;;;;;;;;;;;;;;;21.82;50.34;97890.19;4219637;28;5773;-64
2023/10/04 10:51:52;;;;;;;;;;;;;;;21.86;50.54;97894.06;4218288;28;5674;-64
2023/10/04 10:53:55;;;;;;;;;;;;;;;21.87;50.46;97886.81;4218489;28;6849;-64
2023/10/04 10:55:58;;;;;;;;;;;;;;;21.89;50.25;97882.81;4219084;28;5105;-65
2023/10/04 10:58:02;;;;;;;;;;;;;;;21.92;50.45;97876.94;4219298;28;5843;-64
2023/10/04 11:00:14;;;;;;;;;;;;;;;21.95;50.11;97876.47;4208328;28;5795;-65
2023/10/04 11:02:16;;;;;;;;;;;;;;;21.95;50.52;97875.66;4216224;28;5743;-64
2023/10/04 11:04:19;;;;;;;;;;;;;;;21.95;50.41;97875.66;4219297;28;5836;-64
2023/10/04 11:06:23;;;;;;;;;;;;;;;21.93;50.38;97873.19;4218017;28;6868;-65
2023/10/04 11:08:29;;;;;;;;;;;;;;;21.91;49.84;97872.63;4218589;28;5856;-65
2023/10/04 11:10:34;;;;;;;;;;;;;;;21.90;50.00;97876.38;4216595;28;5682;-64
2023/10/04 11:12:38;;;;;;;;;;;;;;;21.92;50.47;97865.38;4213229;28;5685;-64
2023/10/04 11:14:42;;;;;;;;;;;;;;;21.91;49.95;97861.84;4213725;28;5856;-65
2023/10/04 11:16:45;;;;;;;;;;;;;;;21.91;50.28;97859.16;4216909;28;5685;-64
2023/10/04 11:18:48;;;;;;;;;;;;;;;21.95;50.03;97863.00;4218866;28;5752;-64
2023/10/04 11:21:00;;;;;;;;;;;;;;;21.97;50.01;97858.22;4219104;28;5787;-64
2023/10/04 11:23:04;;;;;;;;;;;;;;;21.96;49.83;97856.56;4210988;28;5658;-64
2023/10/04 11:25:11;;;;;;;;;;;;;;;21.97;50.04;97852.84;4218953;28;5677;-64
2023/10/04 11:27:21;;;;;;;;;;;;;;;21.96;49.96;97856.56;4207698;28;5809;-65
2023/10/04 11:29:25;;;;;;;;;;;;;;;21.95;50.13;97854.91;4212532;28;5693;-64
2023/10/04 11:31:28;;;;;;;;;;;;;;;21.96;49.99;97853.84;4215364;28;5170;-65
2023/10/04 11:33:50;;;;;;;;;;;;;;;21.97;50.13;97852.84;4214374;28;5702;-65
2023/10/04 11:35:53;;;;;;;;;;;;;;;21.96;50.15;97844.97;4214137;28;5925;-63
2023/10/04 11:37:56;;;;;;;;;;;;;;;21.97;49.78;97846.59;4213614;28;5786;-64
2023/10/04 11:40:00;;;;;;;;;;;;;;;21.97;49.84;97844.75;4218649;28;5834;-64
2023/10/04 11:42:06;;;;;;;;;;;;;;;21.98;50.08;97841.00;4218698;28;5748;-64
2023/10/04 11:44:09;;;;;;;;;;;;;;;22.01;50.25;97845.09;4218549;28;5672;-65
2023/10/04 11:46:13;;;;;;;;;;;;;;;22.05;50.33;97843.53;4218217;28;5689;-64
2023/10/04 11:48:21;;;;;;;;;;;;;;;22.07;50.42;97826.09;4216820;28;5819;-64
2023/10/04 11:50:23;;;;;;;;;;;;;;;22.10;49.97;97834.78;4215048;28;5673;-65
2023/10/04 11:52:29;;;;;;;;;;;;;;;22.10;50.20;97827.53;4218336;28;5792;-65
2023/10/04 11:54:39;;;;;;;;;;;;;;;22.11;50.24;97825.63;4218513;28;5915;-65
2023/10/04 11:56:42;;;;;;;;;;;;;;;22.13;50.13;97823.53;4217774;28;5681;-65
2023/10/04 11:58:47;;;;;;;;;;;;;;;22.12;49.81;97830.78;4216073;28;5112;-65
2023/10/04 12:01:04;;;;;;;;;;;;;;;22.12;49.80;97821.88;4218246;28;5714;-65
2023/10/04 12:03:09;;;;;;;;;;;;;;;22.11;49.75;97821.06;4218262;28;5669;-64
2023/10/04 12:05:12;;;;;;;;;;;;;;;22.12;50.11;97816.50;4218396;28;5681;-64
2023/10/04 12:07:15;;;;;;;;;;;;;;;22.13;50.20;97810.06;4218150;28;5940;-64
2023/10/04 12:09:18;;;;;;;;;;;;;;;22.14;50.08;97809.81;4215084;28;5765;-64
2023/10/04 12:11:23;;;;;;;;;;;;;;;22.16;49.60;97801.47;4215889;28;5783;-64
2023/10/04 12:13:26;;;;;;;;;;;;;;;22.17;49.73;97808.50;4217788;28;6379;-64
2023/10/04 12:15:30;;;;;;;;;;;;;;;22.20;49.92;97808.00;4216999;28;5756;-64
2023/10/04 12:17:34;;;;;;;;;;;;;;;22.23;49.84;97808.34;4212507;28;6656;-65
2023/10/04 12:19:38;;;;;;;;;;;;;;;22.27;49.94;97800.59;4213362;28;5686;-64
2023/10/04 12:21:43;;;;;;;;;;;;;;;22.29;49.69;97795.78;4217000;28;5676;-65
2023/10/04 12:23:45;;;;;;;;;;;;;;;22.30;50.21;97797.41;4216926;28;5925;-65
2023/10/04 12:25:48;;;;;;;;;;;;;;;22.30;50.20;97792.84;4216663;28;5685;-64
2023/10/04 12:27:52;;;;;;;;;;;;;;;22.31;49.73;97805.28;4216570;28;5767;-65
2023/10/04 12:29:56;;;;;;;;;;;;;;;22.31;49.77;97788.25;4217026;28;5681;-65
2023/10/04 12:32:01;;;;;;;;;;;;;;;22.32;50.04;97795.31;4216880;28;5681;-65
2023/10/04 12:34:05;;;;;;;;;;;;;;;22.33;50.06;97797.75;4216835;28;5788;-65
2023/10/04 12:36:09;;;;;;;;;;;;;;;22.36;49.92;97797.25;4207746;28;5750;-64
2023/10/04 12:38:12;;;;;;;;;;;;;;;22.38;49.65;97799.72;4217087;28;5771;-65
2023/10/04 12:40:23;;;;;;;;;;;;;;;22.41;49.64;97793.81;4216769;28;5765;-65
2023/10/04 12:42:26;;;;;;;;;;;;;;;22.41;49.77;97788.44;4216661;28;5669;-65
2023/10/04 12:44:30;;;;;;;;;;;;;;;22.42;49.56;97795.44;4216285;28;5691;-65
2023/10/04 12:46:33;;;;;;;;;;;;;;;22.43;49.66;97797.13;4216521;28;5772;-65
2023/10/04 12:48:37;;;;;;;;;;;;;;;22.42;49.77;97792.75;4215826;28;5669;-65
2023/10/04 12:50:41;;;;;;;;;;;;;;;22.43;49.67;97793.59;4216451;28;5767;-65
2023/10/04 12:52:45;;;;;;;;;;;;;;;22.44;49.41;97798.75;4216532;28;5220;-64
2023/10/04 12:54:48;;;;;;;;;;;;;;;22.46;49.65;97795.81;4216391;28;5736;-64
2023/10/04 12:56:51;;;;;;;;;;;;;;;22.47;49.86;97794.75;4216149;28;5675;-65
2023/10/04 12:59:03;;;;;;;;;;;;;;;22.48;49.51;97794.50;4216387;28;5752;-65
2023/10/04 13:01:06;;;;;;;;;;;;;;;22.48;49.28;97786.41;4216180;28;5756;-65
2023/10/04 13:03:09;;;;;;;;;;;;;;;22.50;49.30;97786.97;4216166;28;5668;-65
2023/10/04 13:05:15;;;;;;;;;;;;;;;22.51;49.45;97785.91;4215819;28;5677;-64
2023/10/04 13:07:21;;;;;;;;;;;;;;;22.53;49.33;97785.66;4215001;28;6489;-65
2023/10/04 13:09:26;;;;;;;;;;;;;;;22.55;49.74;97788.94;4216223;28;5940;-64
2023/10/04 13:11:30;;;;;;;;;;;;;;;22.55;49.61;97783.56;4216427;28;6466;-64
2023/10/04 13:13:33;;;;;;;;;;;;;;;22.56;49.50;97779.81;4212249;28;5676;-65
2023/10/04 13:15:36;;;;;;;;;;;;;;;22.58;49.71;97780.38;4216405;28;5672;-64
2023/10/04 13:17:39;;;;;;;;;;;;;;;22.58;49.31;97772.28;4216120;28;6929;-65
2023/10/04 13:19:42;;;;;;;;;;;;;;;22.61;49.18;97774.47;4216081;28;5661;-65
2023/10/04 13:21:47;;;;;;;;;;;;;;;22.59;49.31;97774.72;4215979;28;6370;-63
2023/10/04 13:23:49;;;;;;;;;;;;;;;22.59;49.50;97777.44;4216248;28;5855;-65
2023/10/04 13:25:51;;;;;;;;;;;;;;;22.60;49.31;97776.34;4211882;28;5808;-66
2023/10/04 13:27:54;;;;;;;;;;;;;;;22.58;49.33;97773.09;4212526;28;6616;-65
2023/10/04 13:29:57;;;;;;;;;;;;;;;22.58;48.85;97766.91;4215469;28;5764;-65
2023/10/04 13:32:02;;;;;;;;;;;;;;;22.58;49.36;97773.09;4215912;28;6366;-64
2023/10/04 13:34:05;;;;;;;;;;;;;;;22.58;48.93;97772.28;4216027;28;6378;-64
2023/10/04 13:36:09;;;;;;;;;;;;;;;22.59;48.77;97772.03;4216006;28;5752;-65
2023/10/04 13:38:17;;;;;;;;;;;;;;;22.60;49.07;97764.75;4216211;28;5759;-64
2023/10/04 13:40:20;;;;;;;;;;;;;;;22.61;49.26;97763.69;4216277;28;5889;-64
2023/10/04 13:42:23;;;;;;;;;;;;;;;22.59;48.91;97761.25;4216054;28;5674;-64
2023/10/04 13:44:32;;;;;;;;;;;;;;;22.59;48.56;97752.34;4214028;28;5673;-64
2023/10/04 13:46:35;;;;;;;;;;;;;;;22.57;48.57;97749.91;4216027;28;5673;-64
2023/10/04 13:48:41;;;;;;;;;;;;;;;22.58;48.75;97750.72;4217980;28;5677;-65
2023/10/04 13:50:47;;;;;;;;;;;;;;;22.58;49.03;97746.16;4219413;28;5765;-64
2023/10/04 13:52:50;;;;;;;;;;;;;;;22.58;48.60;97746.16;4217699;28;6987;-64
2023/10/04 13:54:55;;;;;;;;;;;;;;;22.59;48.92;97755.88;4219256;28;5764;-64
2023/10/04 13:56:59;;;;;;;;;;;;;;;22.59;48.72;97755.88;4219196;28;5913;-64
2023/10/04 13:59:02;;;;;;;;;;;;;;;22.59;48.70;97757.75;4210734;28;5858;-64
2023/10/04 14:01:06;;;;;;;;;;;;;;;22.57;48.78;97771.47;4211338;28;5756;-64
2023/10/04 14:03:09;;;;;;;;;;;;;;;22.58;48.75;97767.72;4219144;28;5719;-64
2023/10/04 14:05:18;;;;;;;;;;;;;;;22.58;48.96;97765.00;4219139;28;5684;-64
2023/10/04 14:07:21;;;;;;;;;;;;;;;22.60;48.40;97760.19;4219049;28;5673;-64
2023/10/04 14:09:24;;;;;;;;;;;;;;;22.60;48.63;97749.41;4219033;28;5681;-64
2023/10/04 14:11:30;;;;;;;;;;;;;;;22.61;49.00;97755.63;4218774;28;5668;-64
2023/10/04 14:13:34;;;;;;;;;;;;;;;22.61;48.42;97758.31;4218782;28;5764;-68
2023/10/04 14:15:37;;;;;;;;;;;;;;;22.64;48.57;97766.72;4217567;28;5784;-68
2023/10/04 14:17:41;;;;;;;;;;;;;;;22.64;48.89;97777.50;4218472;28;5670;-68
2023/10/04 14:19:44;;;;;;;;;;;;;;;22.64;48.82;97776.66;4219014;28;5702;-68
2023/10/04 14:21:47;;;;;;;;;;;;;;;22.64;48.51;97782.06;4218751;28;5680;-68
2023/10/04 14:23:50;;;;;;;;;;;;;;;22.64;48.65;97782.06;4218835;28;5756;-68
2023/10/04 14:25:56;;;;;;;;;;;;;;;22.64;48.70;97782.88;4218519;28;5784;-69
2023/10/04 14:28:00;;;;;;;;;;;;;;;22.61;47.48;97778.00;4217829;28;6035;-68
2023/10/04 14:30:08;;;;;;;;;;;;;;;22.57;47.28;97774.16;4212436;28;5776;-69
2023/10/04 14:32:11;;;;;;;;;;;;;;;22.56;44.39;97774.41;4217333;28;5676;-76
2023/10/04 14:34:14;;;;;;;;;;;;;;;22.50;44.81;97776.19;4216087;28;5794;-76
2023/10/04 14:36:17;;;;;;;;;;;;;;;22.50;43.64;97770.00;4215930;28;5677;-76
2023/10/04 14:38:19;;;;;;;;;;;;;;;22.51;43.60;97772.44;4220024;28;5673;-77
2023/10/04 14:40:25;;;;;;;;;;;;;;;22.50;43.08;97770.00;4219181;28;5964;-82
2023/10/04 14:42:29;;;;;;;;;;;;;;;22.49;43.57;97769.19;4219701;28;5756;-82
2023/10/04 14:44:34;;;;;;;;;;;;;;;22.53;43.43;97761.41;4219192;28;5755;-82
2023/10/04 14:46:37;;;;;;;;;;;;;;;22.53;43.29;97747.94;4219575;28;5842;-82
2023/10/04 14:48:41;;;;;;;;;;;;;;;22.56;42.50;97747.47;4213052;28;5673;-82
2023/10/04 14:50:49;;;;;;;;;;;;;;;22.56;41.49;97748.28;4217718;28;5695;-82
2023/10/04 14:53:13;;;;;;;;;;;;;;;22.54;41.91;97763.88;4218640;28;5674;-82
2023/10/04 14:55:19;;;;;;;;;;;;;;;22.53;42.69;97770.31;4216542;28;5804;-82
2023/10/04 14:57:22;;;;;;;;;;;;;;;22.52;42.60;97779.47;4216293;28;5880;-82
2023/10/04 14:59:25;;;;;;;;;;;;;;;22.51;42.19;97772.44;4215945;28;5783;-81
2023/10/04 15:01:29;;;;;;;;;;;;;;;22.49;41.80;97771.06;4215100;28;5835;-82
2023/10/04 15:03:32;;;;;;;;;;;;;;;22.48;40.98;97769.44;4214860;28;5700;-72
2023/10/04 15:05:36;;;;;;;;;;;;;;;22.45;41.48;97762.66;4213146;28;6366;-72
2023/10/04 15:07:38;;;;;;;;;;;;;;;22.46;41.36;97764.28;4215370;28;5660;-72
2023/10/04 15:09:42;;;;;;;;;;;;;;;22.49;40.99;97766.47;4210550;28;5129;-72
2023/10/04 15:11:45;;;;;;;;;;;;;;;22.50;40.83;97767.28;4209820;28;6406;-72
2023/10/04 15:13:48;;;;;;;;;;;;;;;22.49;41.39;97763.78;4214198;28;5772;-71
2023/10/04 15:15:52;;;;;;;;;;;;;;;22.49;41.42;97761.09;4212793;28;6498;-71
2023/10/04 15:18:12;;;;;;;;;;;;;;;22.47;40.01;97749.75;4209855;28;5785;-73
2023/10/04 15:20:15;;;;;;;;;;;;;;;22.41;40.57;97748.03;4215532;28;5693;-73
2023/10/04 15:22:27;;;;;;;;;;;;;;;22.40;40.61;97750.97;4217538;28;5848;-74
2023/10/04 15:24:30;;;;;;;;;;;;;;;22.40;40.08;97738.31;4216748;28;5757;-74
2023/10/04 15:26:36;;;;;;;;;;;;;;;22.38;39.99;97741.25;4217143;28;6345;-75
2023/10/04 15:28:43;;;;;;;;;;;;;;;22.38;40.91;97740.44;4216564;28;5834;-74
2023/10/04 15:30:48;;;;;;;;;;;;;;;22.41;40.89;97744.53;4215447;28;5689;-74
2023/10/04 15:32:52;;;;;;;;;;;;;;;22.42;41.10;97738.88;4211333;28;5882;-64
2023/10/04 15:34:59;;;;;;;;;;;;;;;22.43;40.09;97743.22;4210741;28;5871;-65
2023/10/04 15:37:03;;;;;;;;;;;;;;;22.43;40.26;97753.19;4217127;28;5759;-66
2023/10/04 15:39:17;;;;;;;;;;;;;;;22.41;40.48;97750.72;4217297;28;5750;-66
2023/10/04 15:41:20;;;;;;;;;;;;;;;22.42;40.50;97751.53;4217646;28;5762;-66
2023/10/04 15:43:25;;;;;;;;;;;;;;;22.41;40.66;97745.34;4216200;28;5644;-64
2023/10/04 15:45:28;;;;;;;;;;;;;;;22.41;40.78;97745.34;4217402;28;5752;-65
2023/10/04 15:47:31;;;;;;;;;;;;;;;22.42;41.01;97749.66;4215414;28;5800;-64
2023/10/04 15:49:34;;;;;;;;;;;;;;;22.42;40.78;97749.66;4217411;28;5784;-64
2023/10/04 15:51:39;;;;;;;;;;;;;;;22.43;40.60;97753.19;4217692;28;5693;-64
2023/10/04 15:53:44;;;;;;;;;;;;;;;22.42;40.62;97752.34;4218530;28;5769;-65
2023/10/04 15:55:47;;;;;;;;;;;;;;;22.38;40.58;97746.66;4218720;28;5787;-64
2023/10/04 15:57:50;;;;;;;;;;;;;;;22.35;40.64;97763.31;4218177;28;5729;-64
2023/10/04 15:59:54;;;;;;;;;;;;;;;22.31;40.61;97750.56;4217302;28;5673;-65
2023/10/04 16:01:57;;;;;;;;;;;;;;;22.30;40.83;97765.09;4217375;28;5673;-66
2023/10/04 16:04:02;;;;;;;;;;;;;;;22.26;40.85;97763.94;4218229;28;5749;-64
2023/10/04 16:06:07;;;;;;;;;;;;;;;22.25;40.99;97759.63;4210641;28;5665;-66
2023/10/04 16:08:12;;;;;;;;;;;;;;;22.23;40.70;97753.69;4211917;28;5680;-65
2023/10/04 16:10:15;;;;;;;;;;;;;;;22.19;40.86;97753.31;4217906;28;6327;-65
2023/10/04 16:12:19;;;;;;;;;;;;;;;22.17;41.02;97743.88;4218015;28;5677;-66
2023/10/04 16:14:22;;;;;;;;;;;;;;;22.18;40.93;97740.09;4215654;28;5243;-65
2023/10/04 16:16:25;;;;;;;;;;;;;;;22.18;41.28;97737.41;4217940;28;5785;-64
2023/10/04 16:18:29;;;;;;;;;;;;;;;22.20;41.11;97737.97;4212947;28;5741;-64
2023/10/04 16:20:32;;;;;;;;;;;;;;;22.22;40.86;97736.69;4215662;28;5784;-63
2023/10/04 16:22:38;;;;;;;;;;;;;;;22.23;41.02;97737.50;4214492;28;5748;-66
2023/10/04 16:24:43;;;;;;;;;;;;;;;22.20;41.24;97736.13;4217740;28;5779;-66
2023/10/04 16:26:46;;;;;;;;;;;;;;;22.19;41.24;97734.47;4213367;28;5665;-65
2023/10/04 16:28:48;;;;;;;;;;;;;;;22.19;40.92;97728.28;4215317;28;5661;-65
2023/10/04 16:30:50;;;;;;;;;;;;;;;22.19;41.01;97733.66;4214672;28;5764;-63
2023/10/04 16:32:54;;;;;;;;;;;;;;;22.19;40.76;97734.47;4207016;28;6551;-64
2023/10/04 16:34:57;;;;;;;;;;;;;;;22.13;41.04;97738.16;4216839;28;5735;-64
2023/10/04 16:37:00;;;;;;;;;;;;;;;22.11;41.51;97744.84;4217472;28;5669;-64